Time;durP1;ratioP1;P1;durP2;ratioP2;P2;SDS_P1;SDS_P2;PMS_P1;PMS_P2;Temp;Humidity;BMP_temperature;BMP_pressure;BME280_temperature;BME280_humidity;BME280_pressure;Samples;Min_cycle;Max_cycle;Signal;HPM_P1;HPM_P2
2021/03/22 00:00:41;;;;;;;26.75;10.32;;;;;;;;;;5008769;28;20026;-59
2021/03/22 00:03:08;;;;;;;25.08;9.93;;;;;;;;;;5008726;28;20036;-62
2021/03/22 00:05:35;;;;;;;30.98;10.05;;;;;;;;;;5009216;28;20498;-63
2021/03/22 00:08:01;;;;;;;25.92;10.15;;;;;;;;;;5027849;28;20029;-63
2021/03/22 00:10:28;;;;;;;27.23;9.18;;;;;;;;;;5031970;28;20029;-62
2021/03/22 00:12:54;;;;;;;33.70;9.85;;;;;;;;;;5014124;28;20086;-62
2021/03/22 00:15:21;;;;;;;24.58;8.75;;;;;;;;;;5031571;28;20033;-62
2021/03/22 00:17:58;;;;;;;;;;;;;;;;;;;;;
2021/03/22 00:20:21;;;;;;;30.08;9.73;;;;;;;;;;5054549;23;20064;-63
2021/03/22 00:22:47;;;;;;;24.67;9.73;;;;;;;;;;5016383;28;20032;-61
2021/03/22 00:25:13;;;;;;;22.75;9.70;;;;;;;;;;5017002;28;20732;-61
2021/03/22 00:27:39;;;;;;;26.17;9.88;;;;;;;;;;5033767;28;20109;-62
2021/03/22 00:30:06;;;;;;;27.35;9.40;;;;;;;;;;5026828;28;20045;-60
2021/03/22 00:32:33;;;;;;;31.63;11.20;;;;;;;;;;5015281;28;20034;-62
2021/03/22 00:34:59;;;;;;;27.67;8.77;;;;;;;;;;5013882;28;20784;-62
2021/03/22 00:37:25;;;;;;;27.77;10.13;;;;;;;;;;5014439;28;20057;-61
2021/03/22 00:39:51;;;;;;;25.20;9.45;;;;;;;;;;5014315;28;20022;-61
2021/03/22 00:42:17;;;;;;;32.88;9.20;;;;;;;;;;5033598;28;20171;-63
2021/03/22 00:44:43;;;;;;;33.20;10.02;;;;;;;;;;5016674;28;20026;-61
2021/03/22 00:47:09;;;;;;;28.75;9.73;;;;;;;;;;5029605;28;20040;-61
2021/03/22 00:49:35;;;;;;;24.75;8.93;;;;;;;;;;5014544;28;20018;-62
2021/03/22 00:52:01;;;;;;;29.70;9.07;;;;;;;;;;5014635;28;20026;-62
2021/03/22 00:54:27;;;;;;;22.85;9.50;;;;;;;;;;5013317;28;20092;-59
2021/03/22 00:56:53;;;;;;;27.98;10.77;;;;;;;;;;5013908;28;20101;-58
2021/03/22 00:59:20;;;;;;;25.80;9.40;;;;;;;;;;5013192;28;20143;-62
2021/03/22 01:01:46;;;;;;;28.27;8.98;;;;;;;;;;5029539;28;20096;-64
2021/03/22 01:04:13;;;;;;;33.83;9.52;;;;;;;;;;5031476;28;20121;-61
2021/03/22 01:06:39;;;;;;;28.92;10.05;;;;;;;;;;5013679;28;20529;-63
2021/03/22 01:09:05;;;;;;;20.42;8.40;;;;;;;;;;5014411;28;20057;-63
2021/03/22 01:11:32;;;;;;;27.08;9.95;;;;;;;;;;5014393;28;20045;-63
2021/03/22 01:13:59;;;;;;;26.23;9.50;;;;;;;;;;5012928;28;20022;-61
2021/03/22 01:16:27;;;;;;;24.85;9.45;;;;;;;;;;5012127;28;20080;-63
2021/03/22 01:18:54;;;;;;;31.40;9.43;;;;;;;;;;5012701;28;20444;-62
2021/03/22 01:21:24;;;;;;;33.95;9.82;;;;;;;;;;5014133;28;20088;-63
2021/03/22 01:23:50;;;;;;;30.60;10.70;;;;;;;;;;5012850;28;20088;-62
2021/03/22 01:26:17;;;;;;;26.10;9.10;;;;;;;;;;5013298;28;20607;-61
2021/03/22 01:28:43;;;;;;;25.02;9.10;;;;;;;;;;5012596;28;20021;-54
2021/03/22 01:31:09;;;;;;;30.80;9.85;;;;;;;;;;5013521;28;20131;-61
2021/03/22 01:33:37;;;;;;;25.35;10.35;;;;;;;;;;5015418;28;20022;-61
2021/03/22 01:36:06;;;;;;;27.73;9.05;;;;;;;;;;5016116;28;20057;-59
2021/03/22 01:38:32;;;;;;;25.92;9.57;;;;;;;;;;5018454;28;20382;-61
2021/03/22 01:41:01;;;;;;;24.50;9.07;;;;;;;;;;5019835;28;20466;-61
2021/03/22 01:43:41;;;;;;;22.52;9.13;;;;;;;;;;5018821;28;20460;-60
2021/03/22 01:46:07;;;;;;;23.67;9.35;;;;;;;;;;5013806;28;20022;-62
2021/03/22 01:48:33;;;;;;;22.70;10.10;;;;;;;;;;5013510;28;20026;-62
2021/03/22 01:50:59;;;;;;;26.98;9.02;;;;;;;;;;5013418;28;20026;-56
2021/03/22 01:53:25;;;;;;;31.40;8.65;;;;;;;;;;5013748;28;20022;-63
2021/03/22 01:55:51;;;;;;;24.35;8.70;;;;;;;;;;5011971;28;20030;-62
2021/03/22 01:58:18;;;;;;;24.23;9.57;;;;;;;;;;5011334;28;20030;-61
2021/03/22 02:00:44;;;;;;;26.48;9.10;;;;;;;;;;5013586;28;20026;-64
2021/03/22 02:03:13;;;;;;;24.13;8.90;;;;;;;;;;5013535;28;20026;-61
2021/03/22 02:05:41;;;;;;;32.95;9.93;;;;;;;;;;5012005;28;20095;-63
2021/03/22 02:08:12;;;;;;;27.27;9.02;;;;;;;;;;5011212;28;20058;-62
2021/03/22 02:10:39;;;;;;;30.80;9.85;;;;;;;;;;5012082;28;20389;-62
2021/03/22 02:13:06;;;;;;;18.92;8.50;;;;;;;;;;5013239;28;20018;-60
2021/03/22 02:15:32;;;;;;;23.73;10.18;;;;;;;;;;5013306;28;20477;-63
2021/03/22 02:18:05;;;;;;;33.75;11.30;;;;;;;;;;5011135;28;20120;-58
2021/03/22 02:20:40;;;;;;;22.42;8.35;;;;;;;;;;5011831;28;20029;-63
2021/03/22 02:23:24;;;;;;;20.83;9.27;;;;;;;;;;5012963;28;20026;-63
2021/03/22 02:26:00;;;;;;;23.63;9.20;;;;;;;;;;5013015;28;20036;-62
2021/03/22 02:28:26;;;;;;;23.85;9.55;;;;;;;;;;5010676;28;20037;-62
2021/03/22 02:30:52;;;;;;;27.85;9.38;;;;;;;;;;5012908;28;20026;-64
2021/03/22 02:33:21;;;;;;;30.13;9.90;;;;;;;;;;5011553;28;20107;-60
2021/03/22 02:35:52;;;;;;;28.98;10.13;;;;;;;;;;5012846;28;20385;-61
2021/03/22 02:38:21;;;;;;;27.25;9.45;;;;;;;;;;5012138;28;20047;-62
2021/03/22 02:40:54;;;;;;;23.90;8.88;;;;;;;;;;5013196;28;20438;-62
2021/03/22 02:43:20;;;;;;;24.45;9.10;;;;;;;;;;5013309;28;20084;-62
2021/03/22 02:45:46;;;;;;;26.23;9.48;;;;;;;;;;5011450;28;20053;-61
2021/03/22 02:48:17;;;;;;;21.85;9.25;;;;;;;;;;5010990;28;20112;-62
2021/03/22 02:50:43;;;;;;;22.42;9.63;;;;;;;;;;5013277;28;20014;-63
2021/03/22 02:53:20;;;;;;;26.98;9.02;;;;;;;;;;5013749;28;20030;-63
2021/03/22 02:56:08;;;;;;;21.75;8.93;;;;;;;;;;5011301;28;20038;-60
2021/03/22 02:58:45;;;;;;;32.30;11.20;;;;;;;;;;5012437;28;20028;-63
2021/03/22 03:01:29;;;;;;;24.92;9.52;;;;;;;;;;5012398;28;20028;-63
2021/03/22 03:03:57;;;;;;;31.80;10.75;;;;;;;;;;5013320;28;20481;-62
2021/03/22 03:06:40;;;;;;;27.30;10.32;;;;;;;;;;5011622;28;20401;-61
2021/03/22 03:09:06;;;;;;;23.95;9.73;;;;;;;;;;5010750;28;20248;-62
2021/03/22 03:11:33;;;;;;;20.00;9.68;;;;;;;;;;5012355;28;20033;-63
2021/03/22 03:13:59;;;;;;;26.85;9.40;;;;;;;;;;5012495;28;20029;-63
2021/03/22 03:16:25;;;;;;;28.90;9.80;;;;;;;;;;5010294;28;20073;-62
2021/03/22 03:18:52;;;;;;;26.17;9.80;;;;;;;;;;5011976;28;20037;-61
2021/03/22 03:21:18;;;;;;;25.52;9.68;;;;;;;;;;5012062;28;20032;-60
2021/03/22 03:23:45;;;;;;;27.10;11.02;;;;;;;;;;5012122;28;20029;-63
2021/03/22 03:26:11;;;;;;;19.33;9.18;;;;;;;;;;5011433;28;20037;-63
2021/03/22 03:28:37;;;;;;;31.30;9.57;;;;;;;;;;5011973;28;20026;-60
2021/03/22 03:31:03;;;;;;;30.77;10.55;;;;;;;;;;5010793;28;20053;-60
2021/03/22 03:33:29;;;;;;;29.33;9.80;;;;;;;;;;5012279;28;20030;-63
2021/03/22 03:35:57;;;;;;;23.90;9.75;;;;;;;;;;5011091;28;20240;-60
2021/03/22 03:38:23;;;;;;;28.08;10.20;;;;;;;;;;5008853;28;20025;-62
2021/03/22 03:40:49;;;;;;;25.65;10.50;;;;;;;;;;5013416;28;20053;-63
2021/03/22 03:43:16;;;;;;;22.65;9.45;;;;;;;;;;5015940;28;20084;-63
2021/03/22 03:45:45;;;;;;;27.23;10.05;;;;;;;;;;5016172;28;20101;-61
2021/03/22 03:48:13;;;;;;;22.38;9.52;;;;;;;;;;5015289;28;20444;-62
2021/03/22 03:50:39;;;;;;;24.42;9.55;;;;;;;;;;5015750;28;20076;-62
2021/03/22 03:53:06;;;;;;;31.13;9.30;;;;;;;;;;5015758;28;20072;-64
2021/03/22 03:55:32;;;;;;;22.98;9.77;;;;;;;;;;5016128;28;20026;-63
2021/03/22 03:57:59;;;;;;;26.80;9.95;;;;;;;;;;5015373;28;20037;-61
2021/03/22 04:00:27;;;;;;;29.33;10.10;;;;;;;;;;5014567;28;20029;-62
2021/03/22 04:02:54;;;;;;;28.27;11.18;;;;;;;;;;5016116;28;20026;-62
2021/03/22 04:05:21;;;;;;;26.58;10.93;;;;;;;;;;5015543;28;20030;-60
2021/03/22 04:07:47;;;;;;;22.67;9.98;;;;;;;;;;5014715;28;20399;-62
2021/03/22 04:10:15;;;;;;;28.80;9.90;;;;;;;;;;5015396;28;20045;-61
2021/03/22 04:12:41;;;;;;;27.23;10.23;;;;;;;;;;5014104;28;20026;-63
2021/03/22 04:15:12;;;;;;;28.95;10.82;;;;;;;;;;5015199;28;20022;-59
2021/03/22 04:17:38;;;;;;;32.72;12.35;;;;;;;;;;5014719;28;20026;-60
2021/03/22 04:20:06;;;;;;;32.78;12.27;;;;;;;;;;5015040;28;20056;-62
2021/03/22 04:22:32;;;;;;;29.15;13.10;;;;;;;;;;5015277;28;20026;-61
2021/03/22 04:24:59;;;;;;;24.38;11.40;;;;;;;;;;5015262;28;20072;-61
2021/03/22 04:27:25;;;;;;;25.83;10.45;;;;;;;;;;5014556;28;20156;-60
2021/03/22 04:29:51;;;;;;;25.70;10.23;;;;;;;;;;5015060;28;20029;-63
2021/03/22 04:32:17;;;;;;;31.92;10.60;;;;;;;;;;5013834;28;20110;-61
2021/03/22 04:34:43;;;;;;;27.90;10.45;;;;;;;;;;5013817;28;20072;-58
2021/03/22 04:37:10;;;;;;;26.40;10.77;;;;;;;;;;5014569;28;20034;-63
2021/03/22 04:39:37;;;;;;;27.67;11.93;;;;;;;;;;5014897;28;20041;-62
2021/03/22 04:42:04;;;;;;;27.00;9.73;;;;;;;;;;5015025;28;20025;-59
2021/03/22 04:44:30;;;;;;;30.20;10.90;;;;;;;;;;5014900;28;20026;-62
2021/03/22 04:46:57;;;;;;;28.00;10.85;;;;;;;;;;5013958;28;20422;-62
2021/03/22 04:49:23;;;;;;;26.95;9.65;;;;;;;;;;5014580;28;20065;-61
2021/03/22 04:51:49;;;;;;;25.10;10.75;;;;;;;;;;5014354;28;20026;-61
2021/03/22 04:54:16;;;;;;;28.23;10.10;;;;;;;;;;5014780;28;20029;-61
2021/03/22 04:56:42;;;;;;;25.92;11.45;;;;;;;;;;5014016;28;20105;-63
2021/03/22 04:59:09;;;;;;;28.67;11.70;;;;;;;;;;5014482;28;20033;-63
2021/03/22 05:01:35;;;;;;;29.20;10.98;;;;;;;;;;5013003;28;20121;-62
2021/03/22 05:04:01;;;;;;;27.88;11.60;;;;;;;;;;5014633;28;20088;-62
2021/03/22 05:06:27;;;;;;;25.98;10.90;;;;;;;;;;5012317;28;20481;-61
2021/03/22 05:08:55;;;;;;;33.40;11.70;;;;;;;;;;5014145;28;20025;-61
2021/03/22 05:11:21;;;;;;;28.98;11.50;;;;;;;;;;5014138;28;20018;-61
2021/03/22 05:13:48;;;;;;;22.38;10.30;;;;;;;;;;5014275;28;20100;-63
2021/03/22 05:16:14;;;;;;;26.88;11.70;;;;;;;;;;5012122;28;20058;-61
2021/03/22 05:18:40;;;;;;;27.67;11.52;;;;;;;;;;5012790;28;20615;-63
2021/03/22 05:21:08;;;;;;;27.33;12.27;;;;;;;;;;5014135;28;20036;-63
2021/03/22 05:23:35;;;;;;;27.55;12.13;;;;;;;;;;5013997;28;20029;-63
2021/03/22 05:26:01;;;;;;;25.42;11.05;;;;;;;;;;5013701;28;20508;-62
2021/03/22 05:28:29;;;;;;;24.30;10.70;;;;;;;;;;5013115;28;20029;-61
2021/03/22 05:30:55;;;;;;;26.35;11.98;;;;;;;;;;5013414;28;20076;-61
2021/03/22 05:33:22;;;;;;;32.85;12.40;;;;;;;;;;5013937;28;20172;-63
2021/03/22 05:35:50;;;;;;;28.23;11.55;;;;;;;;;;5013555;28;20272;-61
2021/03/22 05:38:17;;;;;;;23.98;11.57;;;;;;;;;;5013027;28;20367;-60
2021/03/22 05:40:55;;;;;;;28.08;12.00;;;;;;;;;;5013554;28;20026;-63
2021/03/22 05:43:40;;;;;;;23.45;11.35;;;;;;;;;;5012122;28;20116;-61
2021/03/22 05:46:09;;;;;;;24.73;10.25;;;;;;;;;;5013016;28;20425;-58
2021/03/22 05:48:42;;;;;;;27.13;10.85;;;;;;;;;;5013342;28;20026;-63
2021/03/22 05:51:27;;;;;;;24.63;11.85;;;;;;;;;;5013389;28;20057;-60
2021/03/22 05:53:56;;;;;;;24.33;11.30;;;;;;;;;;5013272;28;20029;-60
2021/03/22 05:56:46;;;;;;;28.20;12.20;;;;;;;;;;5012623;28;20097;-62
2021/03/22 05:59:19;;;;;;;29.75;12.85;;;;;;;;;;5005395;28;20045;-61
2021/03/22 06:01:47;;;;;;;28.13;11.60;;;;;;;;;;5011648;28;20022;-60
2021/03/22 06:04:16;;;;;;;29.05;11.57;;;;;;;;;;5012293;28;20481;-61
2021/03/22 06:06:43;;;;;;;26.10;11.00;;;;;;;;;;5012600;28;20040;-60
2021/03/22 06:09:20;;;;;;;29.13;11.70;;;;;;;;;;5012888;28;20049;-60
2021/03/22 06:12:00;;;;;;;26.42;11.85;;;;;;;;;;5013019;28;20076;-60
2021/03/22 06:14:30;;;;;;;28.20;11.93;;;;;;;;;;5010877;28;20044;-58
2021/03/22 06:17:19;;;;;;;33.78;11.80;;;;;;;;;;5002454;28;20046;-58
2021/03/22 06:19:53;;;;;;;25.20;10.50;;;;;;;;;;4999211;28;20038;-63
2021/03/22 06:22:22;;;;;;;27.45;11.43;;;;;;;;;;5023118;23;20536;-67
2021/03/22 06:24:48;;;;;;;28.73;11.25;;;;;;;;;;5021258;28;20540;-65
2021/03/22 06:27:14;;;;;;;31.63;10.60;;;;;;;;;;5031195;28;20029;-66
2021/03/22 06:29:43;;;;;;;21.88;10.68;;;;;;;;;;5030282;28;20030;-67
2021/03/22 06:32:18;;;;;;;21.98;10.65;;;;;;;;;;5011068;28;20420;-67
2021/03/22 06:34:47;;;;;;;28.15;11.10;;;;;;;;;;5011765;28;20058;-69
2021/03/22 06:37:14;;;;;;;26.08;11.40;;;;;;;;;;5011441;28;20033;-67
2021/03/22 06:39:44;;;;;;;26.90;10.80;;;;;;;;;;4994462;28;20112;-67
2021/03/22 06:42:36;;;;;;;27.13;10.35;;;;;;;;;;4994026;28;20385;-64
2021/03/22 06:45:04;;;;;;;24.52;10.60;;;;;;;;;;4991722;28;20060;-67
2021/03/22 06:47:31;;;;;;;26.23;10.55;;;;;;;;;;4993444;28;20022;-65
2021/03/22 06:50:17;;;;;;;23.17;9.65;;;;;;;;;;4985356;28;20482;-67
2021/03/22 06:52:47;;;;;;;23.90;9.18;;;;;;;;;;4987634;28;20397;-68
2021/03/22 06:55:25;;;;;;;24.73;10.18;;;;;;;;;;5000884;28;20025;-66
2021/03/22 06:57:51;;;;;;;20.83;10.02;;;;;;;;;;4982949;28;20033;-67
2021/03/22 07:00:23;;;;;;;22.10;10.15;;;;;;;;;;4999848;28;20027;-70
2021/03/22 07:02:50;;;;;;;26.38;11.32;;;;;;;;;;4985071;28;20026;-68
2021/03/22 07:05:21;;;;;;;22.30;9.57;;;;;;;;;;5002492;28;20026;-66
2021/03/22 07:07:59;;;;;;;24.38;10.00;;;;;;;;;;4997677;28;20030;-66
2021/03/22 07:10:27;;;;;;;27.92;11.35;;;;;;;;;;4995661;28;20027;-68
2021/03/22 07:13:05;;;;;;;25.92;10.07;;;;;;;;;;4977806;28;20025;-68
2021/03/22 07:15:33;;;;;;;24.35;9.88;;;;;;;;;;4980994;28;20033;-67
2021/03/22 07:18:00;;;;;;;20.20;9.73;;;;;;;;;;5011122;28;20026;-67
2021/03/22 07:20:26;;;;;;;21.85;9.43;;;;;;;;;;4993731;28;20036;-68
2021/03/22 07:23:06;;;;;;;20.95;10.05;;;;;;;;;;5010695;28;20045;-67
2021/03/22 07:25:38;;;;;;;19.40;9.63;;;;;;;;;;5009281;28;20033;-66
2021/03/22 07:28:16;;;;;;;22.88;11.45;;;;;;;;;;5010328;28;20492;-67
2021/03/22 07:30:45;;;;;;;21.45;8.88;;;;;;;;;;5010144;28;20057;-67
2021/03/22 07:33:14;;;;;;;21.80;10.77;;;;;;;;;;4992982;28;20061;-65
2021/03/22 07:35:59;;;;;;;27.20;11.10;;;;;;;;;;5010551;28;20485;-62
2021/03/22 07:38:49;;;;;;;19.25;8.45;;;;;;;;;;5009049;28;20026;-67
2021/03/22 07:41:27;;;;;;;23.50;10.13;;;;;;;;;;5010520;28;20049;-66
2021/03/22 07:44:09;;;;;;;19.08;9.00;;;;;;;;;;5010903;28;20105;-66
2021/03/22 07:46:41;;;;;;;20.40;9.40;;;;;;;;;;5010742;28;20026;-66
2021/03/22 07:49:26;;;;;;;23.05;10.07;;;;;;;;;;5011137;28;20504;-65
2021/03/22 07:52:10;;;;;;;22.50;9.25;;;;;;;;;;5010474;28;20511;-67
2021/03/22 07:54:42;;;;;;;20.65;9.00;;;;;;;;;;5010155;28;20065;-67
2021/03/22 07:57:08;;;;;;;21.75;9.68;;;;;;;;;;5010439;28;20037;-63
2021/03/22 07:59:44;;;;;;;24.65;9.63;;;;;;;;;;5010155;28;20078;-65
2021/03/22 08:02:30;;;;;;;16.90;9.20;;;;;;;;;;4992785;28;20437;-64
2021/03/22 08:05:22;;;;;;;23.20;10.40;;;;;;;;;;4992802;28;20393;-65
2021/03/22 08:07:48;;;;;;;20.95;10.35;;;;;;;;;;5006601;28;20038;-63
2021/03/22 08:10:34;;;;;;;19.27;9.82;;;;;;;;;;5010518;28;20032;-59
2021/03/22 08:13:05;;;;;;;17.77;9.57;;;;;;;;;;5010157;28;20485;-59
2021/03/22 08:15:31;;;;;;;20.60;10.63;;;;;;;;;;5009382;28;20089;-61
2021/03/22 08:18:22;;;;;;;20.33;10.43;;;;;;;;;;5010254;28;20022;-59
2021/03/22 08:20:52;;;;;;;19.33;9.90;;;;;;;;;;5010360;28;20030;-62
2021/03/22 08:23:37;;;;;;;19.48;10.13;;;;;;;;;;5010016;28;20493;-61
2021/03/22 08:26:04;;;;;;;21.85;9.95;;;;;;;;;;5010143;28;20049;-62
2021/03/22 08:28:32;;;;;;;18.95;9.95;;;;;;;;;;5013503;28;20133;-61
2021/03/22 08:30:59;;;;;;;20.33;10.65;;;;;;;;;;5013209;28;20045;-60
2021/03/22 08:33:30;;;;;;;22.40;10.80;;;;;;;;;;4995914;28;20583;-58
2021/03/22 08:36:04;;;;;;;17.95;10.32;;;;;;;;;;5013335;28;20109;-61
2021/03/22 08:38:48;;;;;;;18.30;9.93;;;;;;;;;;5013247;28;20053;-61
2021/03/22 08:41:42;;;;;;;16.02;9.30;;;;;;;;;;5013432;28;20076;-59
2021/03/22 08:44:17;;;;;;;17.15;9.13;;;;;;;;;;5013263;28;20026;-61
2021/03/22 08:46:48;;;;;;;18.23;9.98;;;;;;;;;;5013009;28;20093;-62
2021/03/22 08:49:28;;;;;;;17.42;9.55;;;;;;;;;;5013647;28;20021;-59
2021/03/22 08:51:54;;;;;;;17.20;8.98;;;;;;;;;;5013170;28;20069;-59
2021/03/22 08:54:22;;;;;;;18.20;9.02;;;;;;;;;;4995376;28;20026;-61
2021/03/22 08:56:53;;;;;;;18.90;10.35;;;;;;;;;;5012968;28;20026;-59
2021/03/22 08:59:20;;;;;;;17.13;9.00;;;;;;;;;;5012689;28;20030;-63
2021/03/22 09:01:46;;;;;;;18.45;9.75;;;;;;;;;;5012851;28;20489;-61
2021/03/22 09:04:18;;;;;;;19.42;9.65;;;;;;;;;;5012905;28;20044;-67
2021/03/22 09:06:57;;;;;;;19.00;9.95;;;;;;;;;;5012575;28;20066;-66
2021/03/22 09:09:28;;;;;;;16.23;9.73;;;;;;;;;;5012914;28;20026;-66
2021/03/22 09:11:54;;;;;;;18.40;11.35;;;;;;;;;;4995176;28;20028;-67
2021/03/22 09:14:29;;;;;;;18.88;9.57;;;;;;;;;;5012843;28;20466;-65
2021/03/22 09:16:57;;;;;;;19.20;10.00;;;;;;;;;;5012449;28;20385;-65
2021/03/22 09:19:29;;;;;;;17.37;10.20;;;;;;;;;;4995132;28;20033;-65
2021/03/22 09:21:55;;;;;;;19.52;10.50;;;;;;;;;;5012529;28;20037;-64
2021/03/22 09:24:45;;;;;;;17.70;10.15;;;;;;;;;;5012721;28;20572;-65
2021/03/22 09:27:20;;;;;;;17.33;10.30;;;;;;;;;;4994889;28;20099;-63
2021/03/22 09:29:48;;;;;;;19.63;10.50;;;;;;;;;;5012613;28;20029;-64
2021/03/22 09:34:53;;;;;;;17.73;10.32;;;;;;;;;;5013126;28;20037;-65
2021/03/22 09:37:41;;;;;;;16.48;9.70;;;;;;;;;;5013367;28;20041;-65
2021/03/22 09:40:27;;;;;;;17.23;9.43;;;;;;;;;;4995430;28;20069;-66
2021/03/22 09:43:11;;;;;;;17.75;9.68;;;;;;;;;;5005620;28;20117;-65
2021/03/22 09:45:55;;;;;;;16.60;9.80;;;;;;;;;;5014279;28;20029;-66
2021/03/22 09:48:27;;;;;;;17.40;9.02;;;;;;;;;;5015332;28;20516;-65
2021/03/22 09:51:13;;;;;;;16.25;9.50;;;;;;;;;;5015548;28;20030;-65
2021/03/22 09:53:55;;;;;;;17.15;9.98;;;;;;;;;;5015314;28;20030;-66
2021/03/22 09:56:42;;;;;;;17.80;10.90;;;;;;;;;;5014996;28;20073;-65
2021/03/22 09:59:11;;;;;;;18.63;11.20;;;;;;;;;;4994842;28;20033;-64
2021/03/22 10:01:40;;;;;;;18.33;10.07;;;;;;;;;;5011572;28;20022;-65
2021/03/22 10:04:16;;;;;;;17.60;10.63;;;;;;;;;;5011924;28;20082;-64
2021/03/22 10:06:42;;;;;;;16.02;9.85;;;;;;;;;;5011731;28;20125;-65
2021/03/22 10:09:21;;;;;;;18.02;10.85;;;;;;;;;;4994683;28;20053;-63
2021/03/22 10:11:46;;;;;;;;;;;;;;;;;;4995135;28;20029;-65
2021/03/22 10:14:18;;;;;;;18.33;11.02;;;;;;;;;;5012485;28;19960;-65
2021/03/22 10:16:46;;;;;;;18.25;10.35;;;;;;;;;;4995760;28;20473;-65
2021/03/22 10:19:23;;;;;;;17.55;10.80;;;;;;;;;;5012269;28;20037;-65
2021/03/22 10:21:51;;;;;;;17.13;11.25;;;;;;;;;;5011541;28;20053;-66
2021/03/22 10:24:23;;;;;;;22.15;12.38;;;;;;;;;;5011689;28;20101;-65
2021/03/22 10:26:50;;;;;;;18.63;10.95;;;;;;;;;;5010685;28;20021;-66
2021/03/22 10:29:22;;;;;;;18.67;12.13;;;;;;;;;;5010949;28;20053;-65
2021/03/22 10:31:50;;;;;;;19.77;12.13;;;;;;;;;;4993694;28;20173;-65
2021/03/22 10:34:27;;;;;;;20.42;11.57;;;;;;;;;;5011457;28;20026;-66
2021/03/22 10:36:53;;;;;;;17.88;11.52;;;;;;;;;;4994257;28;20453;-66
2021/03/22 10:39:40;;;;;;;19.50;12.23;;;;;;;;;;5011172;28;20070;-65
2021/03/22 10:42:22;;;;;;;18.73;11.95;;;;;;;;;;4993544;28;20536;-63
2021/03/22 10:44:48;;;;;;;17.48;12.35;;;;;;;;;;5010713;28;20034;-65
2021/03/22 10:47:17;;;;;;;19.13;12.40;;;;;;;;;;5010868;28;20057;-65
2021/03/22 10:49:42;;;;;;;;;;;;;;;;;;5011288;28;20030;-65
2021/03/22 10:52:25;;;;;;;17.77;13.02;;;;;;;;;;5010846;28;19958;-64
2021/03/22 10:54:52;;;;;;;17.92;12.93;;;;;;;;;;5010648;28;20040;-64
2021/03/22 10:57:29;;;;;;;17.13;12.32;;;4.90;99.90;;;;;;4993280;28;20029;-65
2021/03/22 11:00:03;;;;;;;18.02;12.38;;;8.80;99.90;;;;;;5008912;28;20564;-66
2021/03/22 11:02:40;;;;;;;17.13;12.38;;;;;;;;;;5012088;28;20083;-67
2021/03/22 11:05:07;;;;;;;19.05;13.23;;;;;;;;;;5011178;28;20028;-66
2021/03/22 11:07:34;;;;;;;18.90;11.88;;;;;;;;;;5009564;28;20041;-63
2021/03/22 11:10:02;;;;;;;17.80;12.60;;;;;;;;;;5010342;28;20057;-68
2021/03/22 11:12:29;;;;;;;16.60;11.95;;;;;;;;;;5009859;28;20105;-64
2021/03/22 11:14:57;;;;;;;20.77;12.63;;;;;;;;;;5009872;28;20026;-67
2021/03/22 11:17:24;;;;;;;19.40;11.95;;;;;;;;;;5005119;28;20023;-64
2021/03/22 11:19:50;;;;;;;17.67;11.93;;;;;;;;;;4990350;28;20390;-65
2021/03/22 11:22:16;;;;;;;18.55;11.88;;;;;;;;;;4988178;28;20066;-65
2021/03/22 11:24:44;;;;;;;16.75;11.77;;;;;;;;;;4989462;28;20101;-66
2021/03/22 11:27:12;;;;;;;16.77;11.60;;;;;;;;;;4989307;28;20073;-66
2021/03/22 11:29:56;;;;;;;16.55;11.40;;;;;;;;;;4990043;28;20094;-65
2021/03/22 11:32:23;;;;;;;20.00;12.18;;;;;;;;;;4990378;28;20030;-65
2021/03/22 11:34:49;;;;;;;20.83;11.52;;;;;;;;;;4991011;28;20023;-65
2021/03/22 11:37:19;;;;;;;17.40;11.38;;;;;;;;;;4991598;28;20466;-65
2021/03/22 11:39:46;;;;;;;18.08;11.35;;;;;;;;;;4974355;28;20101;-65
2021/03/22 11:42:30;;;;;;;18.75;11.80;;;;;;;;;;4991244;28;20037;-64
2021/03/22 11:44:57;;;;;;;18.02;11.85;;;;;;;;;;4990812;28;20030;-66
2021/03/22 11:47:26;;;;;;;16.73;11.48;;;;;;;;;;4990439;28;20036;-66
2021/03/22 11:49:53;;;;;;;17.50;11.57;;;;;;;;;;4990490;28;20033;-65
2021/03/22 11:52:20;;;;;;;16.98;11.35;;;;;;;;;;4990395;28;20022;-66
2021/03/22 11:54:47;;;;;;;16.88;11.23;;;;;;;;;;4973249;28;20026;-65
2021/03/22 11:57:17;;;;;;;18.70;11.85;;;;;;;;;;4990515;28;20027;-67
2021/03/22 11:59:56;;;;;;;21.20;11.90;;;;;;;;;;4990682;28;20038;-65
2021/03/22 12:02:24;;;;;;;18.70;12.07;;;;;;;;;;5002983;28;20160;-64
2021/03/22 12:04:51;;;;;;;18.60;12.35;;;;;;;;;;5012854;28;20065;-63
2021/03/22 12:07:32;;;;;;;23.27;13.68;;;;;;;;;;5013639;28;20081;-66
2021/03/22 12:09:58;;;;;;;19.02;12.13;;;;;;;;;;5013851;28;20462;-64
2021/03/22 12:12:24;;;;;;;20.67;12.50;;;;;;;;;;5013932;28;20358;-63
2021/03/22 12:14:51;;;;;;;19.65;12.45;;;;;;;;;;5013628;28;20029;-65
2021/03/22 12:17:22;;;;;;;19.00;12.80;;;;;;;;;;5013533;28;20116;-66
2021/03/22 12:19:49;;;;;;;21.00;12.80;;;;;;;;;;5013799;28;20401;-67
2021/03/22 12:22:15;;;;;;;19.42;12.45;;;;;;;;;;4681884;22;9999932;-58
2021/03/22 12:24:41;;;;;;;18.10;12.50;;;;;;;;;;5017668;28;20509;-58
2021/03/22 12:27:09;;;;;;;22.45;14.30;;;;;;;;;;5028157;28;20037;-54
2021/03/22 12:29:36;;;;;;;16.65;11.90;;;;;;;;;;5011150;28;20385;-53
2021/03/22 12:32:03;;;;;;;17.55;11.45;;;;;;;;;;5010068;28;20072;-53
2021/03/22 12:34:29;;;;;;;19.00;12.27;;;;;;;;;;5010866;28;20532;-56
2021/03/22 12:36:55;;;;;;;18.00;12.30;;;;;;;;;;4997087;28;20041;-55
2021/03/22 12:39:22;;;;;;;18.58;12.63;;;;;;;;;;5010957;28;20030;-51
2021/03/22 12:41:50;;;;;;;17.70;13.10;;;;;;;;;;5010964;28;20097;-54
2021/03/22 12:44:16;;;;;;;18.70;13.10;;;;;;;;;;5010603;28;20440;-57
2021/03/22 12:46:42;;;;;;;19.33;12.85;;;;;;;;;;4992270;28;20477;-52
2021/03/22 12:49:17;;;;;;;17.05;13.00;;;;;;;;;;5010731;28;20033;-54
2021/03/22 12:51:43;;;;;;;16.83;12.60;;;;;;;;;;5009278;28;20089;-56
2021/03/22 12:54:10;;;;;;;17.73;13.57;;;;;;;;;;4993039;28;20033;-55
2021/03/22 12:56:36;;;;;;;16.15;12.40;;;;;;;;;;5009710;28;20106;-53
2021/03/22 12:59:03;;;;;;;18.73;12.40;;;;;;;;;;5010915;28;20033;-57
2021/03/22 13:01:29;;;;;;;19.88;11.68;;;;;;;;;;5010498;28;20413;-57
2021/03/22 13:03:55;;;;;;;16.48;11.30;;;;;;;;;;4995575;28;20500;-57
2021/03/22 13:06:23;;;;;;;17.05;11.18;;;;;;;;;;5014879;28;20030;-53
2021/03/22 13:08:49;;;;;;;;;;;;;;;;;;5014894;28;20025;-57
2021/03/22 13:11:21;;;;;;;18.83;11.45;;;8.70;99.90;;;;;;5014585;28;19906;-56
2021/03/22 13:13:48;;;;;;;17.83;11.50;;;8.40;99.90;;;;;;5014261;28;20018;-57
2021/03/22 13:16:20;;;;;;;18.45;11.38;;;8.50;99.90;;;;;;5014848;28;20054;-51
2021/03/22 13:18:47;;;;;;;15.63;11.07;;;8.50;99.90;;;;;;5016711;28;20057;-57
2021/03/22 13:21:15;;;;;;;18.85;11.60;;;8.60;99.90;;;;;;5014505;28;20022;-57
2021/03/22 13:23:42;;;;;;;15.63;10.90;;;8.60;99.90;;;;;;5013402;28;20057;-56
2021/03/22 13:26:11;;;;;;;16.67;10.45;;;8.50;99.90;;;;;;5013240;28;20049;-57
2021/03/22 13:28:38;;;;;;;15.65;10.63;;;8.40;99.90;;;;;;5013890;28;20037;-59
2021/03/22 13:31:08;;;;;;;17.77;10.00;;;8.40;99.90;;;;;;5013411;28;20034;-56
2021/03/22 13:33:37;;;;;;;16.50;10.20;;;8.20;99.90;;;;;;5014112;28;20026;-57
2021/03/22 13:36:05;;;;;;;15.40;9.73;;;8.20;99.90;;;;;;4996286;28;20519;-57
2021/03/22 13:38:33;;;;;;;16.20;10.57;;;8.30;99.90;;;;;;4995560;28;20122;-58
2021/03/22 13:41:03;;;;;;;15.15;10.40;;;8.40;99.90;;;;;;5013471;28;20032;-56
2021/03/22 13:43:30;;;;;;;15.65;10.25;;;8.30;99.90;;;;;;5013658;28;20033;-59
2021/03/22 13:45:58;;;;;;;15.85;10.40;;;8.40;99.90;;;;;;4995849;28;20401;-53
2021/03/22 13:48:25;;;;;;;15.80;10.93;;;8.50;99.90;;;;;;4995760;28;20076;-55
2021/03/22 13:50:51;;;;;;;15.85;11.20;;;8.60;99.90;;;;;;5013441;28;20018;-56
2021/03/22 13:53:19;;;;;;;17.98;11.38;;;8.70;99.90;;;;;;5013173;28;20056;-56
2021/03/22 13:55:46;;;;;;;15.55;11.40;;;8.80;99.90;;;;;;5013559;28;20405;-59
2021/03/22 13:58:18;;;;;;;16.75;11.80;;;9.00;99.90;;;;;;5013641;28;20030;-55
2021/03/22 14:00:43;;;;;;;17.20;11.60;;;8.90;99.90;;;;;;5013526;28;20073;-56
2021/03/22 14:03:10;;;;;;;20.35;12.52;;;8.80;99.90;;;;;;5013362;28;20535;-56
2021/03/22 14:05:36;;;;;;;18.13;11.32;;;8.70;99.90;;;;;;4995753;28;20056;-58
2021/03/22 14:08:01;;;;;;;16.10;11.70;;;8.80;99.90;;;;;;4663627;28;10000121;-60
2021/03/22 14:10:27;;;;;;;15.68;10.95;;;8.80;99.90;;;;;;5010074;28;20034;-56
2021/03/22 14:12:53;;;;;;;15.45;10.40;;;8.50;99.90;;;;;;4992429;28;20026;-55
2021/03/22 14:15:23;;;;;;;16.90;11.23;;;8.50;99.90;;;;;;5010812;28;20096;-56
2021/03/22 14:17:49;;;;;;;16.92;11.00;;;8.30;99.90;;;;;;5009838;28;20077;-56
2021/03/22 14:20:16;;;;;;;16.67;11.00;;;8.30;99.90;;;;;;5010391;28;20143;-57
2021/03/22 14:22:42;;;;;;;18.67;11.25;;;8.40;99.90;;;;;;5009235;28;20038;-56
2021/03/22 14:25:08;;;;;;;15.95;11.20;;;8.40;99.90;;;;;;5009347;28;20690;-55
2021/03/22 14:27:34;;;;;;;15.95;10.73;;;8.50;99.90;;;;;;5009585;28;20037;-58
2021/03/22 14:30:00;;;;;;;17.58;11.30;;;8.60;99.90;;;;;;5010335;28;20022;-55